sensor_id;sensor_type;location;lat;lon;timestamp;temperature;humidity
19214;DHT22;9741;51.020;5.304;2023-09-08T00:01:42;18.90;63.50
19214;DHT22;9741;51.020;5.304;2023-09-08T00:04:09;18.90;63.50
19214;DHT22;9741;51.020;5.304;2023-09-08T00:06:38;18.80;63.50
19214;DHT22;9741;51.020;5.304;2023-09-08T00:09:06;18.80;63.50
19214;DHT22;9741;51.020;5.304;2023-09-08T00:11:33;18.70;63.50
19214;DHT22;9741;51.020;5.304;2023-09-08T00:14:00;18.70;63.50
19214;DHT22;9741;51.020;5.304;2023-09-08T00:16:29;18.70;63.60
19214;DHT22;9741;51.020;5.304;2023-09-08T00:18:56;18.60;63.60
19214;DHT22;9741;51.020;5.304;2023-09-08T00:21:24;18.60;63.60
19214;DHT22;9741;51.020;5.304;2023-09-08T00:23:53;18.60;63.70
19214;DHT22;9741;51.020;5.304;2023-09-08T00:26:21;18.50;63.70
19214;DHT22;9741;51.020;5.304;2023-09-08T00:28:48;18.50;63.70
19214;DHT22;9741;51.020;5.304;2023-09-08T00:31:15;18.50;63.90
19214;DHT22;9741;51.020;5.304;2023-09-08T00:33:42;18.50;63.90
19214;DHT22;9741;51.020;5.304;2023-09-08T00:36:09;18.40;63.90
19214;DHT22;9741;51.020;5.304;2023-09-08T00:38:37;18.40;64.00
19214;DHT22;9741;51.020;5.304;2023-09-08T00:41:06;18.40;64.10
19214;DHT22;9741;51.020;5.304;2023-09-08T00:43:33;18.40;64.10
19214;DHT22;9741;51.020;5.304;2023-09-08T00:46:02;18.40;64.70
19214;DHT22;9741;51.020;5.304;2023-09-08T00:48:29;18.30;64.50
19214;DHT22;9741;51.020;5.304;2023-09-08T00:50:57;18.30;64.20
19214;DHT22;9741;51.020;5.304;2023-09-08T00:53:25;18.30;64.20
19214;DHT22;9741;51.020;5.304;2023-09-08T00:55:53;18.30;64.20
19214;DHT22;9741;51.020;5.304;2023-09-08T00:58:22;18.20;64.20
19214;DHT22;9741;51.020;5.304;2023-09-08T01:00:50;18.20;64.30
19214;DHT22;9741;51.020;5.304;2023-09-08T01:03:17;18.20;64.40
19214;DHT22;9741;51.020;5.304;2023-09-08T01:05:44;18.10;64.40
19214;DHT22;9741;51.020;5.304;2023-09-08T01:08:14;18.10;64.40
19214;DHT22;9741;51.020;5.304;2023-09-08T01:10:42;18.10;64.50
19214;DHT22;9741;51.020;5.304;2023-09-08T01:13:09;18.10;64.60
19214;DHT22;9741;51.020;5.304;2023-09-08T01:15:38;18.10;64.60
19214;DHT22;9741;51.020;5.304;2023-09-08T01:18:05;18.00;64.60
19214;DHT22;9741;51.020;5.304;2023-09-08T01:20:43;18.00;64.70
19214;DHT22;9741;51.020;5.304;2023-09-08T01:23:18;18.00;64.70
19214;DHT22;9741;51.020;5.304;2023-09-08T01:25:52;18.00;64.70
19214;DHT22;9741;51.020;5.304;2023-09-08T01:28:21;18.00;64.80
19214;DHT22;9741;51.020;5.304;2023-09-08T01:30:49;17.90;64.70
19214;DHT22;9741;51.020;5.304;2023-09-08T01:33:17;18.00;64.90
19214;DHT22;9741;51.020;5.304;2023-09-08T01:35:45;18.00;65.00
19214;DHT22;9741;51.020;5.304;2023-09-08T01:38:13;17.90;64.90
19214;DHT22;9741;51.020;5.304;2023-09-08T01:40:40;18.00;65.00
19214;DHT22;9741;51.020;5.304;2023-09-08T01:43:09;17.90;65.00
19214;DHT22;9741;51.020;5.304;2023-09-08T01:45:36;17.90;65.00
19214;DHT22;9741;51.020;5.304;2023-09-08T01:48:03;18.00;65.10
19214;DHT22;9741;51.020;5.304;2023-09-08T01:50:30;18.00;65.20
19214;DHT22;9741;51.020;5.304;2023-09-08T01:52:58;17.90;65.10
19214;DHT22;9741;51.020;5.304;2023-09-08T01:55:25;17.90;65.40
19214;DHT22;9741;51.020;5.304;2023-09-08T01:57:52;18.00;65.20
19214;DHT22;9741;51.020;5.304;2023-09-08T02:00:20;17.90;65.20
19214;DHT22;9741;51.020;5.304;2023-09-08T02:02:48;17.90;65.20
19214;DHT22;9741;51.020;5.304;2023-09-08T02:05:15;17.90;65.20
19214;DHT22;9741;51.020;5.304;2023-09-08T02:07:42;17.90;65.20
19214;DHT22;9741;51.020;5.304;2023-09-08T02:10:10;17.90;65.20
19214;DHT22;9741;51.020;5.304;2023-09-08T02:12:37;17.90;65.20
19214;DHT22;9741;51.020;5.304;2023-09-08T02:15:05;17.90;65.30
19214;DHT22;9741;51.020;5.304;2023-09-08T02:17:34;17.90;65.30
19214;DHT22;9741;51.020;5.304;2023-09-08T02:20:01;17.90;65.30
19214;DHT22;9741;51.020;5.304;2023-09-08T02:22:29;17.90;65.30
19214;DHT22;9741;51.020;5.304;2023-09-08T02:24:56;17.90;65.40
19214;DHT22;9741;51.020;5.304;2023-09-08T02:27:23;17.90;65.40
19214;DHT22;9741;51.020;5.304;2023-09-08T02:29:51;17.80;65.30
19214;DHT22;9741;51.020;5.304;2023-09-08T02:32:18;17.90;65.40
19214;DHT22;9741;51.020;5.304;2023-09-08T02:34:46;17.80;65.30
19214;DHT22;9741;51.020;5.304;2023-09-08T02:37:15;17.80;65.40
19214;DHT22;9741;51.020;5.304;2023-09-08T02:39:44;17.80;65.40
19214;DHT22;9741;51.020;5.304;2023-09-08T02:42:11;17.80;65.40
19214;DHT22;9741;51.020;5.304;2023-09-08T02:44:38;17.80;65.50
19214;DHT22;9741;51.020;5.304;2023-09-08T02:47:05;17.80;65.50
19214;DHT22;9741;51.020;5.304;2023-09-08T02:49:33;17.80;65.50
19214;DHT22;9741;51.020;5.304;2023-09-08T02:52:02;17.80;65.50
19214;DHT22;9741;51.020;5.304;2023-09-08T02:54:29;17.80;65.50
19214;DHT22;9741;51.020;5.304;2023-09-08T02:56:57;17.70;65.40
19214;DHT22;9741;51.020;5.304;2023-09-08T02:59:24;17.70;65.40
19214;DHT22;9741;51.020;5.304;2023-09-08T03:01:51;17.70;66.00
19214;DHT22;9741;51.020;5.304;2023-09-08T03:04:18;17.70;65.50
19214;DHT22;9741;51.020;5.304;2023-09-08T03:06:45;17.70;65.50
19214;DHT22;9741;51.020;5.304;2023-09-08T03:09:14;17.70;65.50
19214;DHT22;9741;51.020;5.304;2023-09-08T03:11:41;17.70;65.50
19214;DHT22;9741;51.020;5.304;2023-09-08T03:14:08;17.70;65.50
19214;DHT22;9741;51.020;5.304;2023-09-08T03:16:35;17.70;65.50
19214;DHT22;9741;51.020;5.304;2023-09-08T03:19:02;17.70;65.50
19214;DHT22;9741;51.020;5.304;2023-09-08T03:21:29;17.70;65.70
19214;DHT22;9741;51.020;5.304;2023-09-08T03:23:57;17.70;65.50
19214;DHT22;9741;51.020;5.304;2023-09-08T03:26:25;17.70;65.50
19214;DHT22;9741;51.020;5.304;2023-09-08T03:28:52;17.70;65.50
19214;DHT22;9741;51.020;5.304;2023-09-08T03:31:19;17.70;65.50
19214;DHT22;9741;51.020;5.304;2023-09-08T03:33:47;17.70;65.50
19214;DHT22;9741;51.020;5.304;2023-09-08T03:36:14;17.70;65.50
19214;DHT22;9741;51.020;5.304;2023-09-08T03:38:41;17.70;65.50
19214;DHT22;9741;51.020;5.304;2023-09-08T03:41:08;17.70;65.50
19214;DHT22;9741;51.020;5.304;2023-09-08T03:43:38;17.70;65.50
19214;DHT22;9741;51.020;5.304;2023-09-08T03:46:05;17.70;65.50
19214;DHT22;9741;51.020;5.304;2023-09-08T03:48:32;17.70;65.50
19214;DHT22;9741;51.020;5.304;2023-09-08T03:50:59;17.60;65.40
19214;DHT22;9741;51.020;5.304;2023-09-08T03:53:26;17.60;65.50
19214;DHT22;9741;51.020;5.304;2023-09-08T03:55:53;17.60;65.50
19214;DHT22;9741;51.020;5.304;2023-09-08T03:58:21;17.60;65.50
19214;DHT22;9741;51.020;5.304;2023-09-08T04:00:49;17.50;65.50
19214;DHT22;9741;51.020;5.304;2023-09-08T04:03:16;17.50;65.50
19214;DHT22;9741;51.020;5.304;2023-09-08T04:05:45;17.50;65.60
19214;DHT22;9741;51.020;5.304;2023-09-08T04:08:13;17.50;65.60
19214;DHT22;9741;51.020;5.304;2023-09-08T04:10:40;17.50;65.70
19214;DHT22;9741;51.020;5.304;2023-09-08T04:13:07;17.40;65.70
19214;DHT22;9741;51.020;5.304;2023-09-08T04:15:34;17.40;65.70
19214;DHT22;9741;51.020;5.304;2023-09-08T04:18:03;17.40;65.70
19214;DHT22;9741;51.020;5.304;2023-09-08T04:20:30;17.40;65.70
19214;DHT22;9741;51.020;5.304;2023-09-08T04:22:57;17.40;65.80
19214;DHT22;9741;51.020;5.304;2023-09-08T04:25:24;17.40;65.80
19214;DHT22;9741;51.020;5.304;2023-09-08T04:27:51;17.40;65.80
19214;DHT22;9741;51.020;5.304;2023-09-08T04:30:19;17.30;65.80
19214;DHT22;9741;51.020;5.304;2023-09-08T04:32:47;17.30;65.80
19214;DHT22;9741;51.020;5.304;2023-09-08T04:35:15;17.30;65.90
19214;DHT22;9741;51.020;5.304;2023-09-08T04:37:43;17.30;65.90
19214;DHT22;9741;51.020;5.304;2023-09-08T04:40:10;17.30;65.90
19214;DHT22;9741;51.020;5.304;2023-09-08T04:42:37;17.30;65.90
19214;DHT22;9741;51.020;5.304;2023-09-08T04:45:05;17.30;65.90
19214;DHT22;9741;51.020;5.304;2023-09-08T04:47:33;17.30;65.90
19214;DHT22;9741;51.020;5.304;2023-09-08T04:50:00;17.20;65.80
19214;DHT22;9741;51.020;5.304;2023-09-08T04:52:28;17.20;65.80
19214;DHT22;9741;51.020;5.304;2023-09-08T04:54:55;17.10;65.80
19214;DHT22;9741;51.020;5.304;2023-09-08T04:57:23;17.10;65.80
19214;DHT22;9741;51.020;5.304;2023-09-08T04:59:50;17.10;65.90
19214;DHT22;9741;51.020;5.304;2023-09-08T05:02:17;17.10;66.00
19214;DHT22;9741;51.020;5.304;2023-09-08T05:04:45;17.10;66.00
19214;DHT22;9741;51.020;5.304;2023-09-08T05:07:12;17.10;66.00
19214;DHT22;9741;51.020;5.304;2023-09-08T05:09:41;17.10;66.00
19214;DHT22;9741;51.020;5.304;2023-09-08T05:12:08;17.10;66.10
19214;DHT22;9741;51.020;5.304;2023-09-08T05:14:35;17.10;66.10
19214;DHT22;9741;51.020;5.304;2023-09-08T05:17:03;17.10;66.10
19214;DHT22;9741;51.020;5.304;2023-09-08T05:19:30;17.10;66.20
19214;DHT22;9741;51.020;5.304;2023-09-08T05:21:57;17.20;66.20
19214;DHT22;9741;51.020;5.304;2023-09-08T05:24:25;17.20;66.20
19214;DHT22;9741;51.020;5.304;2023-09-08T05:26:54;17.20;66.20
19214;DHT22;9741;51.020;5.304;2023-09-08T05:29:21;17.30;66.30
19214;DHT22;9741;51.020;5.304;2023-09-08T05:31:48;17.30;66.20
19214;DHT22;9741;51.020;5.304;2023-09-08T05:34:15;17.30;66.10
19214;DHT22;9741;51.020;5.304;2023-09-08T05:36:42;17.30;66.10
19214;DHT22;9741;51.020;5.304;2023-09-08T05:39:10;17.30;66.00
19214;DHT22;9741;51.020;5.304;2023-09-08T05:41:39;17.30;66.00
19214;DHT22;9741;51.020;5.304;2023-09-08T05:44:08;17.40;66.00
19214;DHT22;9741;51.020;5.304;2023-09-08T05:46:35;17.40;66.10
19214;DHT22;9741;51.020;5.304;2023-09-08T05:49:02;17.40;66.10
19214;DHT22;9741;51.020;5.304;2023-09-08T05:51:30;17.50;66.20
19214;DHT22;9741;51.020;5.304;2023-09-08T05:53:57;17.60;66.30
19214;DHT22;9741;51.020;5.304;2023-09-08T05:56:29;17.70;66.30
19214;DHT22;9741;51.020;5.304;2023-09-08T05:58:56;17.70;66.40
19214;DHT22;9741;51.020;5.304;2023-09-08T06:01:25;17.90;66.60
19214;DHT22;9741;51.020;5.304;2023-09-08T06:03:53;18.00;66.70
19214;DHT22;9741;51.020;5.304;2023-09-08T06:06:20;18.10;66.70
19214;DHT22;9741;51.020;5.304;2023-09-08T06:08:48;18.20;66.70
19214;DHT22;9741;51.020;5.304;2023-09-08T06:11:15;18.30;66.60
19214;DHT22;9741;51.020;5.304;2023-09-08T06:13:42;18.40;66.70
19214;DHT22;9741;51.020;5.304;2023-09-08T06:16:09;18.50;66.60
19214;DHT22;9741;51.020;5.304;2023-09-08T06:18:38;18.60;66.60
19214;DHT22;9741;51.020;5.304;2023-09-08T06:21:06;18.70;66.60
19214;DHT22;9741;51.020;5.304;2023-09-08T06:23:34;18.80;66.60
19214;DHT22;9741;51.020;5.304;2023-09-08T06:26:01;18.90;66.50
19214;DHT22;9741;51.020;5.304;2023-09-08T06:28:29;19.00;66.60
19214;DHT22;9741;51.020;5.304;2023-09-08T06:30:56;19.10;66.50
19214;DHT22;9741;51.020;5.304;2023-09-08T06:33:26;19.20;66.50
19214;DHT22;9741;51.020;5.304;2023-09-08T06:35:54;19.30;66.40
19214;DHT22;9741;51.020;5.304;2023-09-08T06:38:21;19.40;66.40
19214;DHT22;9741;51.020;5.304;2023-09-08T06:40:48;19.50;66.30
19214;DHT22;9741;51.020;5.304;2023-09-08T06:43:19;19.60;66.20
19214;DHT22;9741;51.020;5.304;2023-09-08T06:45:47;19.80;66.20
19214;DHT22;9741;51.020;5.304;2023-09-08T06:48:15;19.90;66.20
19214;DHT22;9741;51.020;5.304;2023-09-08T06:50:42;20.00;66.10
19214;DHT22;9741;51.020;5.304;2023-09-08T06:53:11;20.10;65.90
19214;DHT22;9741;51.020;5.304;2023-09-08T06:55:38;20.30;65.90
19214;DHT22;9741;51.020;5.304;2023-09-08T06:58:06;20.40;65.80
19214;DHT22;9741;51.020;5.304;2023-09-08T07:00:33;20.50;65.70
19214;DHT22;9741;51.020;5.304;2023-09-08T07:03:00;20.60;65.60
19214;DHT22;9741;51.020;5.304;2023-09-08T07:05:27;20.80;65.60
19214;DHT22;9741;51.020;5.304;2023-09-08T07:07:55;20.90;65.50
19214;DHT22;9741;51.020;5.304;2023-09-08T07:10:23;21.10;65.40
19214;DHT22;9741;51.020;5.304;2023-09-08T07:12:50;21.20;65.20
19214;DHT22;9741;51.020;5.304;2023-09-08T07:15:17;21.40;65.20
19214;DHT22;9741;51.020;5.304;2023-09-08T07:17:45;21.50;65.00
19214;DHT22;9741;51.020;5.304;2023-09-08T07:20:12;21.70;64.90
19214;DHT22;9741;51.020;5.304;2023-09-08T07:22:39;21.80;64.70
19214;DHT22;9741;51.020;5.304;2023-09-08T07:25:07;22.00;64.50
19214;DHT22;9741;51.020;5.304;2023-09-08T07:27:36;22.20;64.30
19214;DHT22;9741;51.020;5.304;2023-09-08T07:30:05;22.40;64.20
19214;DHT22;9741;51.020;5.304;2023-09-08T07:32:32;22.50;63.90
19214;DHT22;9741;51.020;5.304;2023-09-08T07:34:59;22.70;63.70
19214;DHT22;9741;51.020;5.304;2023-09-08T07:37:26;23.00;63.50
19214;DHT22;9741;51.020;5.304;2023-09-08T07:39:53;23.20;63.10
19214;DHT22;9741;51.020;5.304;2023-09-08T07:42:21;23.70;62.90
19214;DHT22;9741;51.020;5.304;2023-09-08T07:44:50;24.50;62.70
19214;DHT22;9741;51.020;5.304;2023-09-08T07:47:17;25.60;62.00
19214;DHT22;9741;51.020;5.304;2023-09-08T07:49:46;27.00;60.80
19214;DHT22;9741;51.020;5.304;2023-09-08T07:52:14;28.40;58.80
19214;DHT22;9741;51.020;5.304;2023-09-08T07:54:41;29.60;56.90
19214;DHT22;9741;51.020;5.304;2023-09-08T07:57:08;30.80;55.30
19214;DHT22;9741;51.020;5.304;2023-09-08T07:59:35;31.90;53.80
19214;DHT22;9741;51.020;5.304;2023-09-08T08:02:04;32.90;52.30
19214;DHT22;9741;51.020;5.304;2023-09-08T08:04:31;33.80;50.70
19214;DHT22;9741;51.020;5.304;2023-09-08T08:06:58;34.70;49.40
19214;DHT22;9741;51.020;5.304;2023-09-08T08:09:25;35.50;48.60
19214;DHT22;9741;51.020;5.304;2023-09-08T08:11:53;36.20;46.50
19214;DHT22;9741;51.020;5.304;2023-09-08T08:14:20;36.70;45.30
19214;DHT22;9741;51.020;5.304;2023-09-08T08:16:49;37.20;44.30
19214;DHT22;9741;51.020;5.304;2023-09-08T08:19:18;37.70;43.90
19214;DHT22;9741;51.020;5.304;2023-09-08T08:21:46;38.20;42.30
19214;DHT22;9741;51.020;5.304;2023-09-08T08:24:13;38.60;41.50
19214;DHT22;9741;51.020;5.304;2023-09-08T08:26:40;38.90;40.90
19214;DHT22;9741;51.020;5.304;2023-09-08T08:29:08;39.30;40.20
19214;DHT22;9741;51.020;5.304;2023-09-08T08:31:35;39.60;39.40
19214;DHT22;9741;51.020;5.304;2023-09-08T08:34:02;40.00;39.50
19214;DHT22;9741;51.020;5.304;2023-09-08T08:36:32;40.30;38.40
19214;DHT22;9741;51.020;5.304;2023-09-08T08:38:59;40.60;37.70
19214;DHT22;9741;51.020;5.304;2023-09-08T08:41:28;40.90;37.30
19214;DHT22;9741;51.020;5.304;2023-09-08T08:43:55;41.10;36.80
19214;DHT22;9741;51.020;5.304;2023-09-08T08:46:23;41.20;36.10
19214;DHT22;9741;51.020;5.304;2023-09-08T08:48:51;41.40;35.60
19214;DHT22;9741;51.020;5.304;2023-09-08T08:51:23;41.60;35.20
19214;DHT22;9741;51.020;5.304;2023-09-08T08:53:52;41.60;34.90
19214;DHT22;9741;51.020;5.304;2023-09-08T08:56:20;41.60;34.40
19214;DHT22;9741;51.020;5.304;2023-09-08T08:58:49;41.60;34.10
19214;DHT22;9741;51.020;5.304;2023-09-08T09:01:16;41.60;34.10
19214;DHT22;9741;51.020;5.304;2023-09-08T09:03:45;41.70;34.00
19214;DHT22;9741;51.020;5.304;2023-09-08T09:06:14;41.70;34.00
19214;DHT22;9741;51.020;5.304;2023-09-08T09:08:43;41.80;33.60
19214;DHT22;9741;51.020;5.304;2023-09-08T09:11:11;41.90;33.40
19214;DHT22;9741;51.020;5.304;2023-09-08T09:13:39;41.90;33.20
19214;DHT22;9741;51.020;5.304;2023-09-08T09:16:06;41.90;33.20
19214;DHT22;9741;51.020;5.304;2023-09-08T09:18:53;42.00;33.10
19214;DHT22;9741;51.020;5.304;2023-09-08T09:21:22;42.10;33.10
19214;DHT22;9741;51.020;5.304;2023-09-08T09:23:49;42.10;32.80
19214;DHT22;9741;51.020;5.304;2023-09-08T09:26:25;42.30;32.70
19214;DHT22;9741;51.020;5.304;2023-09-08T09:28:52;42.30;32.60
19214;DHT22;9741;51.020;5.304;2023-09-08T09:31:23;42.30;32.40
19214;DHT22;9741;51.020;5.304;2023-09-08T09:34:07;42.20;32.30
19214;DHT22;9741;51.020;5.304;2023-09-08T09:36:34;42.10;32.20
19214;DHT22;9741;51.020;5.304;2023-09-08T09:39:06;42.10;32.00
19214;DHT22;9741;51.020;5.304;2023-09-08T09:41:36;41.70;32.00
19214;DHT22;9741;51.020;5.304;2023-09-08T09:44:03;41.40;32.10
19214;DHT22;9741;51.020;5.304;2023-09-08T09:46:31;41.20;32.10
19214;DHT22;9741;51.020;5.304;2023-09-08T09:48:59;41.10;32.20
19214;DHT22;9741;51.020;5.304;2023-09-08T09:51:26;41.00;32.10
19214;DHT22;9741;51.020;5.304;2023-09-08T09:53:54;40.80;31.90
19214;DHT22;9741;51.020;5.304;2023-09-08T09:56:24;40.60;31.70
19214;DHT22;9741;51.020;5.304;2023-09-08T09:58:54;40.10;31.80
19214;DHT22;9741;51.020;5.304;2023-09-08T10:01:24;39.60;32.50
19214;DHT22;9741;51.020;5.304;2023-09-08T10:03:54;38.90;33.00
19214;DHT22;9741;51.020;5.304;2023-09-08T10:06:21;38.20;33.70
19214;DHT22;9741;51.020;5.304;2023-09-08T10:08:50;37.40;34.30
19214;DHT22;9741;51.020;5.304;2023-09-08T10:11:22;36.80;35.00
19214;DHT22;9741;51.020;5.304;2023-09-08T10:13:51;36.20;35.60
19214;DHT22;9741;51.020;5.304;2023-09-08T10:16:22;35.60;36.10
19214;DHT22;9741;51.020;5.304;2023-09-08T10:18:53;35.20;36.70
19214;DHT22;9741;51.020;5.304;2023-09-08T10:21:23;34.70;36.90
19214;DHT22;9741;51.020;5.304;2023-09-08T10:23:56;34.40;37.50
19214;DHT22;9741;51.020;5.304;2023-09-08T10:26:26;34.00;37.80
19214;DHT22;9741;51.020;5.304;2023-09-08T10:28:54;33.60;38.20
19214;DHT22;9741;51.020;5.304;2023-09-08T10:31:26;33.40;38.80
19214;DHT22;9741;51.020;5.304;2023-09-08T10:33:54;33.10;39.10
19214;DHT22;9741;51.020;5.304;2023-09-08T10:36:22;32.80;39.50
19214;DHT22;9741;51.020;5.304;2023-09-08T10:38:50;32.60;39.80
19214;DHT22;9741;51.020;5.304;2023-09-08T10:41:28;32.50;40.20
19214;DHT22;9741;51.020;5.304;2023-09-08T10:44:01;32.40;40.60
19214;DHT22;9741;51.020;5.304;2023-09-08T10:46:31;32.20;40.80
19214;DHT22;9741;51.020;5.304;2023-09-08T10:49:03;32.20;41.30
19214;DHT22;9741;51.020;5.304;2023-09-08T10:51:33;32.10;41.40
19214;DHT22;9741;51.020;5.304;2023-09-08T10:54:01;32.10;41.60
19214;DHT22;9741;51.020;5.304;2023-09-08T10:56:47;32.00;41.80
19214;DHT22;9741;51.020;5.304;2023-09-08T10:59:15;32.00;41.80
19214;DHT22;9741;51.020;5.304;2023-09-08T11:01:44;32.00;42.00
19214;DHT22;9741;51.020;5.304;2023-09-08T11:04:14;32.00;42.10
19214;DHT22;9741;51.020;5.304;2023-09-08T11:06:44;32.00;42.10
19214;DHT22;9741;51.020;5.304;2023-09-08T11:09:11;32.00;42.10
19214;DHT22;9741;51.020;5.304;2023-09-08T11:11:39;32.00;42.10
19214;DHT22;9741;51.020;5.304;2023-09-08T11:14:07;31.90;42.00
19214;DHT22;9741;51.020;5.304;2023-09-08T11:16:34;31.80;42.10
19214;DHT22;9741;51.020;5.304;2023-09-08T11:19:04;31.70;42.20
19214;DHT22;9741;51.020;5.304;2023-09-08T11:21:31;31.60;42.40
19214;DHT22;9741;51.020;5.304;2023-09-08T11:24:01;31.60;42.60
19214;DHT22;9741;51.020;5.304;2023-09-08T11:26:33;31.50;42.70
19214;DHT22;9741;51.020;5.304;2023-09-08T11:29:00;31.50;42.90
19214;DHT22;9741;51.020;5.304;2023-09-08T11:31:27;31.50;43.00
19214;DHT22;9741;51.020;5.304;2023-09-08T11:33:55;31.50;43.20
19214;DHT22;9741;51.020;5.304;2023-09-08T11:36:27;31.60;43.40
19214;DHT22;9741;51.020;5.304;2023-09-08T11:38:56;31.70;43.60
19214;DHT22;9741;51.020;5.304;2023-09-08T11:41:24;31.70;43.70
19214;DHT22;9741;51.020;5.304;2023-09-08T11:43:55;31.80;43.60
19214;DHT22;9741;51.020;5.304;2023-09-08T11:46:23;31.90;43.60
19214;DHT22;9741;51.020;5.304;2023-09-08T11:48:52;32.00;43.60
19214;DHT22;9741;51.020;5.304;2023-09-08T11:51:22;32.00;43.60
19214;DHT22;9741;51.020;5.304;2023-09-08T11:53:51;32.10;43.40
19214;DHT22;9741;51.020;5.304;2023-09-08T11:56:34;32.10;43.30
19214;DHT22;9741;51.020;5.304;2023-09-08T11:59:02;32.10;43.30
19214;DHT22;9741;51.020;5.304;2023-09-08T12:01:30;32.10;43.40
19214;DHT22;9741;51.020;5.304;2023-09-08T12:03:57;32.10;43.20
19214;DHT22;9741;51.020;5.304;2023-09-08T12:06:25;32.20;43.20
19214;DHT22;9741;51.020;5.304;2023-09-08T12:08:55;32.20;43.20
19214;DHT22;9741;51.020;5.304;2023-09-08T12:11:22;32.20;43.00
19214;DHT22;9741;51.020;5.304;2023-09-08T12:13:49;32.20;43.00
19214;DHT22;9741;51.020;5.304;2023-09-08T12:16:20;32.30;43.10
19214;DHT22;9741;51.020;5.304;2023-09-08T12:18:49;32.30;43.90
19214;DHT22;9741;51.020;5.304;2023-09-08T12:21:16;32.30;43.20
19214;DHT22;9741;51.020;5.304;2023-09-08T12:23:47;32.30;43.20
19214;DHT22;9741;51.020;5.304;2023-09-08T12:26:17;32.30;43.30
19214;DHT22;9741;51.020;5.304;2023-09-08T12:28:45;32.30;43.40
19214;DHT22;9741;51.020;5.304;2023-09-08T12:31:14;32.30;43.30
19214;DHT22;9741;51.020;5.304;2023-09-08T12:33:44;32.30;43.40
19214;DHT22;9741;51.020;5.304;2023-09-08T12:36:13;32.30;43.40
19214;DHT22;9741;51.020;5.304;2023-09-08T12:38:40;32.30;43.50
19214;DHT22;9741;51.020;5.304;2023-09-08T12:41:07;32.30;43.50
19214;DHT22;9741;51.020;5.304;2023-09-08T12:43:36;32.30;43.50
19214;DHT22;9741;51.020;5.304;2023-09-08T12:46:03;32.40;43.50
19214;DHT22;9741;51.020;5.304;2023-09-08T12:48:31;32.40;43.30
19214;DHT22;9741;51.020;5.304;2023-09-08T12:50:58;32.40;43.20
19214;DHT22;9741;51.020;5.304;2023-09-08T12:53:25;32.40;43.10
19214;DHT22;9741;51.020;5.304;2023-09-08T12:55:53;32.40;43.10
19214;DHT22;9741;51.020;5.304;2023-09-08T12:58:20;32.40;42.80
19214;DHT22;9741;51.020;5.304;2023-09-08T13:00:49;32.50;42.80
19214;DHT22;9741;51.020;5.304;2023-09-08T13:03:16;32.50;42.90
19214;DHT22;9741;51.020;5.304;2023-09-08T13:05:43;32.40;42.80
19214;DHT22;9741;51.020;5.304;2023-09-08T13:08:11;32.40;42.70
19214;DHT22;9741;51.020;5.304;2023-09-08T13:10:41;32.40;42.60
19214;DHT22;9741;51.020;5.304;2023-09-08T13:13:07;32.50;42.50
19214;DHT22;9741;51.020;5.304;2023-09-08T13:15:34;32.30;42.30
19214;DHT22;9741;51.020;5.304;2023-09-08T13:18:03;32.40;42.60
19214;DHT22;9741;51.020;5.304;2023-09-08T13:20:31;32.30;42.90
19214;DHT22;9741;51.020;5.304;2023-09-08T13:22:58;32.30;42.80
19214;DHT22;9741;51.020;5.304;2023-09-08T13:25:25;32.30;42.80
19214;DHT22;9741;51.020;5.304;2023-09-08T13:27:52;32.30;42.90
19214;DHT22;9741;51.020;5.304;2023-09-08T13:30:20;32.30;42.70
19214;DHT22;9741;51.020;5.304;2023-09-08T13:32:52;32.30;42.80
19214;DHT22;9741;51.020;5.304;2023-09-08T13:35:23;32.30;42.80
19214;DHT22;9741;51.020;5.304;2023-09-08T13:37:52;32.30;43.00
19214;DHT22;9741;51.020;5.304;2023-09-08T13:40:19;32.40;43.00
19214;DHT22;9741;51.020;5.304;2023-09-08T13:42:46;32.40;42.90
19214;DHT22;9741;51.020;5.304;2023-09-08T13:45:14;32.40;42.80
19214;DHT22;9741;51.020;5.304;2023-09-08T13:47:41;32.40;42.70
19214;DHT22;9741;51.020;5.304;2023-09-08T13:50:09;32.40;42.80
19214;DHT22;9741;51.020;5.304;2023-09-08T13:52:37;32.40;42.80
19214;DHT22;9741;51.020;5.304;2023-09-08T13:55:05;32.40;42.80
19214;DHT22;9741;51.020;5.304;2023-09-08T13:57:32;32.50;42.90
19214;DHT22;9741;51.020;5.304;2023-09-08T14:00:00;32.40;43.10
19214;DHT22;9741;51.020;5.304;2023-09-08T14:02:27;32.50;43.20
19214;DHT22;9741;51.020;5.304;2023-09-08T14:04:54;32.40;43.10
19214;DHT22;9741;51.020;5.304;2023-09-08T14:07:21;32.40;43.10
19214;DHT22;9741;51.020;5.304;2023-09-08T14:09:50;32.50;43.30
19214;DHT22;9741;51.020;5.304;2023-09-08T14:12:18;32.40;43.10
19214;DHT22;9741;51.020;5.304;2023-09-08T14:14:45;32.40;43.30
19214;DHT22;9741;51.020;5.304;2023-09-08T14:17:12;32.30;43.10
19214;DHT22;9741;51.020;5.304;2023-09-08T14:19:40;32.30;43.30
19214;DHT22;9741;51.020;5.304;2023-09-08T14:22:07;32.30;43.00
19214;DHT22;9741;51.020;5.304;2023-09-08T14:24:34;32.30;42.80
19214;DHT22;9741;51.020;5.304;2023-09-08T14:27:03;32.30;42.80
19214;DHT22;9741;51.020;5.304;2023-09-08T14:29:32;32.20;42.80
19214;DHT22;9741;51.020;5.304;2023-09-08T14:32:00;32.20;42.70
19214;DHT22;9741;51.020;5.304;2023-09-08T14:34:28;32.20;43.00
19214;DHT22;9741;51.020;5.304;2023-09-08T14:36:55;32.10;42.60
19214;DHT22;9741;51.020;5.304;2023-09-08T14:39:23;32.10;42.40
19214;DHT22;9741;51.020;5.304;2023-09-08T14:41:51;32.10;42.20
19214;DHT22;9741;51.020;5.304;2023-09-08T14:44:20;32.10;42.20
19214;DHT22;9741;51.020;5.304;2023-09-08T14:46:50;32.10;42.50
19214;DHT22;9741;51.020;5.304;2023-09-08T14:49:19;32.10;42.50
19214;DHT22;9741;51.020;5.304;2023-09-08T14:51:47;32.10;42.50
19214;DHT22;9741;51.020;5.304;2023-09-08T14:54:15;32.10;42.40
19214;DHT22;9741;51.020;5.304;2023-09-08T14:56:42;32.10;42.30
19214;DHT22;9741;51.020;5.304;2023-09-08T14:59:10;32.10;42.10
19214;DHT22;9741;51.020;5.304;2023-09-08T15:01:39;32.10;42.00
19214;DHT22;9741;51.020;5.304;2023-09-08T15:04:09;32.10;42.10
19214;DHT22;9741;51.020;5.304;2023-09-08T15:06:37;32.10;42.40
19214;DHT22;9741;51.020;5.304;2023-09-08T15:09:07;32.10;42.50
19214;DHT22;9741;51.020;5.304;2023-09-08T15:11:36;32.10;42.40
19214;DHT22;9741;51.020;5.304;2023-09-08T15:14:05;32.10;42.30
19214;DHT22;9741;51.020;5.304;2023-09-08T15:16:32;32.10;42.30
19214;DHT22;9741;51.020;5.304;2023-09-08T15:19:01;32.10;42.40
19214;DHT22;9741;51.020;5.304;2023-09-08T15:21:29;32.00;42.20
19214;DHT22;9741;51.020;5.304;2023-09-08T15:23:58;32.00;42.30
19214;DHT22;9741;51.020;5.304;2023-09-08T15:26:26;32.00;42.60
19214;DHT22;9741;51.020;5.304;2023-09-08T15:28:53;31.90;42.70
19214;DHT22;9741;51.020;5.304;2023-09-08T15:31:20;31.90;42.70
19214;DHT22;9741;51.020;5.304;2023-09-08T15:33:47;31.90;42.80
19214;DHT22;9741;51.020;5.304;2023-09-08T15:36:16;31.80;42.90
19214;DHT22;9741;51.020;5.304;2023-09-08T15:38:44;31.80;42.90
19214;DHT22;9741;51.020;5.304;2023-09-08T15:41:16;31.90;43.00
19214;DHT22;9741;51.020;5.304;2023-09-08T15:43:50;31.80;43.10
19214;DHT22;9741;51.020;5.304;2023-09-08T15:46:20;31.90;43.20
19214;DHT22;9741;51.020;5.304;2023-09-08T15:48:48;31.80;43.00
19214;DHT22;9741;51.020;5.304;2023-09-08T15:51:19;31.70;43.00